sensor_id;sensor_type;location;lat;lon;timestamp;P1;durP1;ratioP1;P2;durP2;ratioP2
22973;SDS011;11653;50.848;4.584;2023-06-01T00:00:50;15.03;;;8.20;;
22973;SDS011;11653;50.848;4.584;2023-06-01T00:03:16;14.67;;;9.07;;
22973;SDS011;11653;50.848;4.584;2023-06-01T00:05:41;21.03;;;9.63;;
22973;SDS011;11653;50.848;4.584;2023-06-01T00:08:07;15.40;;;9.00;;
22973;SDS011;11653;50.848;4.584;2023-06-01T00:10:32;17.67;;;9.23;;
22973;SDS011;11653;50.848;4.584;2023-06-01T00:12:58;18.70;;;11.00;;
22973;SDS011;11653;50.848;4.584;2023-06-01T00:15:24;16.30;;;9.47;;
22973;SDS011;11653;50.848;4.584;2023-06-01T00:17:50;17.23;;;9.67;;
22973;SDS011;11653;50.848;4.584;2023-06-01T00:20:16;19.23;;;9.60;;
22973;SDS011;11653;50.848;4.584;2023-06-01T00:22:43;17.57;;;8.83;;
22973;SDS011;11653;50.848;4.584;2023-06-01T00:25:09;20.23;;;9.07;;
22973;SDS011;11653;50.848;4.584;2023-06-01T00:27:34;19.97;;;9.27;;
22973;SDS011;11653;50.848;4.584;2023-06-01T00:30:01;17.23;;;8.90;;
22973;SDS011;11653;50.848;4.584;2023-06-01T00:32:27;14.87;;;9.00;;
22973;SDS011;11653;50.848;4.584;2023-06-01T00:34:52;17.43;;;8.83;;
22973;SDS011;11653;50.848;4.584;2023-06-01T00:37:18;16.03;;;8.90;;
22973;SDS011;11653;50.848;4.584;2023-06-01T00:39:43;16.13;;;8.90;;
22973;SDS011;11653;50.848;4.584;2023-06-01T00:42:09;16.80;;;9.33;;
22973;SDS011;11653;50.848;4.584;2023-06-01T00:44:35;17.50;;;9.83;;
22973;SDS011;11653;50.848;4.584;2023-06-01T00:47:00;15.37;;;8.90;;
22973;SDS011;11653;50.848;4.584;2023-06-01T00:49:26;15.30;;;8.67;;
22973;SDS011;11653;50.848;4.584;2023-06-01T00:51:52;19.10;;;9.40;;
22973;SDS011;11653;50.848;4.584;2023-06-01T00:54:18;17.37;;;9.17;;
22973;SDS011;11653;50.848;4.584;2023-06-01T00:56:45;16.17;;;9.00;;
22973;SDS011;11653;50.848;4.584;2023-06-01T00:59:11;18.97;;;9.43;;
22973;SDS011;11653;50.848;4.584;2023-06-01T01:01:38;16.80;;;9.67;;
22973;SDS011;11653;50.848;4.584;2023-06-01T01:04:07;15.73;;;9.80;;
22973;SDS011;11653;50.848;4.584;2023-06-01T01:12:07;16.73;;;10.10;;
22973;SDS011;11653;50.848;4.584;2023-06-01T01:17:17;19.53;;;10.07;;
22973;SDS011;11653;50.848;4.584;2023-06-01T01:20:03;15.43;;;8.97;;
22973;SDS011;11653;50.848;4.584;2023-06-01T01:30:09;17.07;;;9.30;;
22973;SDS011;11653;50.848;4.584;2023-06-01T01:32:36;15.43;;;9.40;;
22973;SDS011;11653;50.848;4.584;2023-06-01T01:35:03;17.30;;;10.07;;
22973;SDS011;11653;50.848;4.584;2023-06-01T01:37:32;16.90;;;9.80;;
22973;SDS011;11653;50.848;4.584;2023-06-01T01:39:58;17.03;;;11.00;;
22973;SDS011;11653;50.848;4.584;2023-06-01T01:42:24;22.73;;;10.20;;
22973;SDS011;11653;50.848;4.584;2023-06-01T01:44:49;16.87;;;9.37;;
22973;SDS011;11653;50.848;4.584;2023-06-01T01:48:17;20.83;;;10.97;;
22973;SDS011;11653;50.848;4.584;2023-06-01T01:50:17;18.33;;;9.70;;
22973;SDS011;11653;50.848;4.584;2023-06-01T01:52:45;23.30;;;10.93;;
22973;SDS011;11653;50.848;4.584;2023-06-01T01:55:12;18.90;;;10.77;;
22973;SDS011;11653;50.848;4.584;2023-06-01T01:57:42;20.13;;;10.33;;
22973;SDS011;11653;50.848;4.584;2023-06-01T02:00:09;17.93;;;10.80;;
22973;SDS011;11653;50.848;4.584;2023-06-01T02:02:37;18.80;;;10.33;;
22973;SDS011;11653;50.848;4.584;2023-06-01T02:05:04;19.73;;;10.43;;
22973;SDS011;11653;50.848;4.584;2023-06-01T02:07:30;21.53;;;11.13;;
22973;SDS011;11653;50.848;4.584;2023-06-01T02:09:55;15.83;;;10.13;;
22973;SDS011;11653;50.848;4.584;2023-06-01T02:12:21;18.70;;;10.60;;
22973;SDS011;11653;50.848;4.584;2023-06-01T02:14:47;18.57;;;10.83;;
22973;SDS011;11653;50.848;4.584;2023-06-01T02:17:12;15.13;;;10.17;;
22973;SDS011;11653;50.848;4.584;2023-06-01T02:19:40;17.70;;;10.30;;
22973;SDS011;11653;50.848;4.584;2023-06-01T02:22:07;21.43;;;10.57;;
22973;SDS011;11653;50.848;4.584;2023-06-01T02:24:32;17.37;;;10.33;;
22973;SDS011;11653;50.848;4.584;2023-06-01T02:26:58;18.87;;;10.73;;
22973;SDS011;11653;50.848;4.584;2023-06-01T02:29:24;24.50;;;10.47;;
22973;SDS011;11653;50.848;4.584;2023-06-01T02:31:50;21.37;;;11.50;;
22973;SDS011;11653;50.848;4.584;2023-06-01T02:34:16;25.43;;;11.47;;
22973;SDS011;11653;50.848;4.584;2023-06-01T02:36:42;19.27;;;10.80;;
22973;SDS011;11653;50.848;4.584;2023-06-01T02:39:08;18.53;;;12.33;;
22973;SDS011;11653;50.848;4.584;2023-06-01T02:41:34;23.30;;;11.33;;
22973;SDS011;11653;50.848;4.584;2023-06-01T02:44:00;18.93;;;11.33;;
22973;SDS011;11653;50.848;4.584;2023-06-01T02:46:26;19.27;;;11.13;;
22973;SDS011;11653;50.848;4.584;2023-06-01T02:48:51;21.27;;;11.43;;
22973;SDS011;11653;50.848;4.584;2023-06-01T02:51:17;19.63;;;11.53;;
22973;SDS011;11653;50.848;4.584;2023-06-01T02:53:46;19.53;;;11.20;;
22973;SDS011;11653;50.848;4.584;2023-06-01T02:56:12;21.23;;;11.17;;
22973;SDS011;11653;50.848;4.584;2023-06-01T02:58:38;17.73;;;11.37;;
22973;SDS011;11653;50.848;4.584;2023-06-01T03:01:04;21.57;;;12.20;;
22973;SDS011;11653;50.848;4.584;2023-06-01T03:03:30;18.80;;;11.73;;
22973;SDS011;11653;50.848;4.584;2023-06-01T03:05:55;18.03;;;12.00;;
22973;SDS011;11653;50.848;4.584;2023-06-01T03:08:22;23.87;;;11.53;;
22973;SDS011;11653;50.848;4.584;2023-06-01T03:10:49;19.23;;;11.30;;
22973;SDS011;11653;50.848;4.584;2023-06-01T03:13:15;20.60;;;12.10;;
22973;SDS011;11653;50.848;4.584;2023-06-01T03:15:41;22.00;;;12.37;;
22973;SDS011;11653;50.848;4.584;2023-06-01T03:18:07;18.97;;;11.30;;
22973;SDS011;11653;50.848;4.584;2023-06-01T03:20:34;23.53;;;12.87;;
22973;SDS011;11653;50.848;4.584;2023-06-01T03:23:00;26.17;;;13.00;;
22973;SDS011;11653;50.848;4.584;2023-06-01T03:25:25;23.13;;;12.23;;
22973;SDS011;11653;50.848;4.584;2023-06-01T03:27:51;24.50;;;12.17;;
22973;SDS011;11653;50.848;4.584;2023-06-01T03:30:17;26.67;;;13.40;;
22973;SDS011;11653;50.848;4.584;2023-06-01T03:32:43;22.90;;;12.90;;
22973;SDS011;11653;50.848;4.584;2023-06-01T03:35:10;22.97;;;13.20;;
22973;SDS011;11653;50.848;4.584;2023-06-01T03:37:37;25.67;;;13.67;;
22973;SDS011;11653;50.848;4.584;2023-06-01T03:40:05;25.97;;;13.73;;
22973;SDS011;11653;50.848;4.584;2023-06-01T03:42:45;25.60;;;13.60;;
22973;SDS011;11653;50.848;4.584;2023-06-01T03:45:12;22.67;;;12.73;;
22973;SDS011;11653;50.848;4.584;2023-06-01T03:47:38;23.47;;;13.50;;
22973;SDS011;11653;50.848;4.584;2023-06-01T03:50:05;21.40;;;12.87;;
22973;SDS011;11653;50.848;4.584;2023-06-01T03:52:32;21.93;;;12.70;;
22973;SDS011;11653;50.848;4.584;2023-06-01T03:54:59;23.43;;;12.93;;
22973;SDS011;11653;50.848;4.584;2023-06-01T03:57:26;26.90;;;13.63;;
22973;SDS011;11653;50.848;4.584;2023-06-01T03:59:53;25.53;;;13.53;;
22973;SDS011;11653;50.848;4.584;2023-06-01T04:02:18;27.97;;;14.53;;
22973;SDS011;11653;50.848;4.584;2023-06-01T04:04:45;29.23;;;14.20;;
22973;SDS011;11653;50.848;4.584;2023-06-01T04:07:12;28.07;;;14.73;;
22973;SDS011;11653;50.848;4.584;2023-06-01T04:09:46;26.57;;;15.00;;
22973;SDS011;11653;50.848;4.584;2023-06-01T04:12:12;29.27;;;14.60;;
22973;SDS011;11653;50.848;4.584;2023-06-01T04:14:38;26.07;;;14.27;;
22973;SDS011;11653;50.848;4.584;2023-06-01T04:17:05;25.33;;;15.03;;
22973;SDS011;11653;50.848;4.584;2023-06-01T04:19:31;29.97;;;15.63;;
22973;SDS011;11653;50.848;4.584;2023-06-01T04:21:58;26.17;;;15.57;;
22973;SDS011;11653;50.848;4.584;2023-06-01T04:24:24;27.83;;;14.47;;
22973;SDS011;11653;50.848;4.584;2023-06-01T04:26:50;30.80;;;15.10;;
22973;SDS011;11653;50.848;4.584;2023-06-01T04:29:16;25.53;;;13.60;;
22973;SDS011;11653;50.848;4.584;2023-06-01T04:31:44;32.27;;;14.83;;
22973;SDS011;11653;50.848;4.584;2023-06-01T04:34:10;25.43;;;14.27;;
22973;SDS011;11653;50.848;4.584;2023-06-01T04:36:37;22.73;;;14.00;;
22973;SDS011;11653;50.848;4.584;2023-06-01T04:39:07;26.17;;;15.10;;
22973;SDS011;11653;50.848;4.584;2023-06-01T04:41:34;27.37;;;14.60;;
22973;SDS011;11653;50.848;4.584;2023-06-01T04:44:00;26.57;;;15.43;;
22973;SDS011;11653;50.848;4.584;2023-06-01T04:46:31;23.60;;;14.10;;
22973;SDS011;11653;50.848;4.584;2023-06-01T04:48:57;29.83;;;15.90;;
22973;SDS011;11653;50.848;4.584;2023-06-01T04:51:25;28.27;;;15.03;;
22973;SDS011;11653;50.848;4.584;2023-06-01T04:53:52;29.50;;;15.57;;
22973;SDS011;11653;50.848;4.584;2023-06-01T04:56:19;26.27;;;14.90;;
22973;SDS011;11653;50.848;4.584;2023-06-01T04:58:49;33.30;;;15.47;;
22973;SDS011;11653;50.848;4.584;2023-06-01T05:01:15;31.27;;;15.63;;
22973;SDS011;11653;50.848;4.584;2023-06-01T05:03:41;28.47;;;16.47;;
22973;SDS011;11653;50.848;4.584;2023-06-01T05:06:09;26.30;;;16.40;;
22973;SDS011;11653;50.848;4.584;2023-06-01T05:08:36;35.13;;;17.43;;
22973;SDS011;11653;50.848;4.584;2023-06-01T05:11:02;28.97;;;17.20;;
22973;SDS011;11653;50.848;4.584;2023-06-01T05:13:28;29.47;;;16.10;;
22973;SDS011;11653;50.848;4.584;2023-06-01T05:15:54;29.57;;;18.10;;
22973;SDS011;11653;50.848;4.584;2023-06-01T05:18:20;37.63;;;17.17;;
22973;SDS011;11653;50.848;4.584;2023-06-01T05:20:46;34.03;;;18.87;;
22973;SDS011;11653;50.848;4.584;2023-06-01T05:23:11;36.07;;;19.00;;
22973;SDS011;11653;50.848;4.584;2023-06-01T05:25:37;36.77;;;18.90;;
22973;SDS011;11653;50.848;4.584;2023-06-01T05:28:03;40.93;;;19.57;;
22973;SDS011;11653;50.848;4.584;2023-06-01T05:30:28;36.97;;;19.90;;
22973;SDS011;11653;50.848;4.584;2023-06-01T05:32:54;41.83;;;20.83;;
22973;SDS011;11653;50.848;4.584;2023-06-01T05:35:20;34.93;;;19.07;;
22973;SDS011;11653;50.848;4.584;2023-06-01T05:37:45;33.53;;;20.17;;
22973;SDS011;11653;50.848;4.584;2023-06-01T05:40:11;39.57;;;21.27;;
22973;SDS011;11653;50.848;4.584;2023-06-01T05:42:37;34.00;;;18.83;;
22973;SDS011;11653;50.848;4.584;2023-06-01T05:45:03;37.00;;;19.87;;
22973;SDS011;11653;50.848;4.584;2023-06-01T05:47:29;39.97;;;21.67;;
22973;SDS011;11653;50.848;4.584;2023-06-01T05:49:54;37.00;;;20.97;;
22973;SDS011;11653;50.848;4.584;2023-06-01T05:52:20;40.00;;;21.17;;
22973;SDS011;11653;50.848;4.584;2023-06-01T05:54:46;41.07;;;20.93;;
22973;SDS011;11653;50.848;4.584;2023-06-01T05:57:14;36.47;;;20.00;;
22973;SDS011;11653;50.848;4.584;2023-06-01T05:59:39;34.23;;;20.13;;
22973;SDS011;11653;50.848;4.584;2023-06-01T06:02:07;39.40;;;21.17;;
22973;SDS011;11653;50.848;4.584;2023-06-01T06:04:32;36.47;;;21.17;;
22973;SDS011;11653;50.848;4.584;2023-06-01T06:06:58;38.00;;;20.63;;
22973;SDS011;11653;50.848;4.584;2023-06-01T06:09:24;38.27;;;21.07;;
22973;SDS011;11653;50.848;4.584;2023-06-01T06:11:50;33.17;;;20.17;;
22973;SDS011;11653;50.848;4.584;2023-06-01T06:14:16;33.93;;;19.90;;
22973;SDS011;11653;50.848;4.584;2023-06-01T06:16:42;37.73;;;19.03;;
22973;SDS011;11653;50.848;4.584;2023-06-01T06:19:07;35.10;;;19.13;;
22973;SDS011;11653;50.848;4.584;2023-06-01T06:21:33;34.70;;;18.57;;
22973;SDS011;11653;50.848;4.584;2023-06-01T06:24:00;34.20;;;19.23;;
22973;SDS011;11653;50.848;4.584;2023-06-01T06:26:26;34.73;;;19.23;;
22973;SDS011;11653;50.848;4.584;2023-06-01T06:28:54;34.60;;;18.67;;
22973;SDS011;11653;50.848;4.584;2023-06-01T06:31:20;35.30;;;18.70;;
22973;SDS011;11653;50.848;4.584;2023-06-01T06:33:47;32.90;;;18.57;;
22973;SDS011;11653;50.848;4.584;2023-06-01T06:36:12;34.60;;;20.17;;
22973;SDS011;11653;50.848;4.584;2023-06-01T06:38:38;34.70;;;20.13;;
22973;SDS011;11653;50.848;4.584;2023-06-01T06:41:03;34.17;;;20.70;;
22973;SDS011;11653;50.848;4.584;2023-06-01T06:43:29;39.37;;;20.50;;
22973;SDS011;11653;50.848;4.584;2023-06-01T06:45:55;35.70;;;19.30;;
22973;SDS011;11653;50.848;4.584;2023-06-01T06:48:20;32.10;;;18.30;;
22973;SDS011;11653;50.848;4.584;2023-06-01T06:50:46;38.30;;;19.90;;
22973;SDS011;11653;50.848;4.584;2023-06-01T06:53:12;32.87;;;19.63;;
22973;SDS011;11653;50.848;4.584;2023-06-01T06:55:38;33.27;;;18.57;;
22973;SDS011;11653;50.848;4.584;2023-06-01T06:58:03;33.20;;;18.80;;
22973;SDS011;11653;50.848;4.584;2023-06-01T07:00:29;29.63;;;18.47;;
22973;SDS011;11653;50.848;4.584;2023-06-01T07:02:55;27.00;;;17.37;;
22973;SDS011;11653;50.848;4.584;2023-06-01T07:05:24;35.77;;;20.93;;
22973;SDS011;11653;50.848;4.584;2023-06-01T07:07:49;27.30;;;16.40;;
22973;SDS011;11653;50.848;4.584;2023-06-01T07:10:15;29.10;;;18.43;;
22973;SDS011;11653;50.848;4.584;2023-06-01T07:12:41;27.83;;;16.63;;
22973;SDS011;11653;50.848;4.584;2023-06-01T07:15:07;25.57;;;17.23;;
22973;SDS011;11653;50.848;4.584;2023-06-01T07:17:33;29.10;;;17.53;;
22973;SDS011;11653;50.848;4.584;2023-06-01T07:20:01;30.87;;;17.00;;
22973;SDS011;11653;50.848;4.584;2023-06-01T07:22:31;28.60;;;16.80;;
22973;SDS011;11653;50.848;4.584;2023-06-01T07:24:58;28.90;;;16.70;;
22973;SDS011;11653;50.848;4.584;2023-06-01T07:27:23;28.37;;;17.27;;
22973;SDS011;11653;50.848;4.584;2023-06-01T07:29:49;25.83;;;16.07;;
22973;SDS011;11653;50.848;4.584;2023-06-01T07:32:23;28.23;;;16.20;;
22973;SDS011;11653;50.848;4.584;2023-06-01T07:34:50;25.67;;;15.23;;
22973;SDS011;11653;50.848;4.584;2023-06-01T07:37:16;27.90;;;16.13;;
22973;SDS011;11653;50.848;4.584;2023-06-01T07:39:46;24.50;;;16.20;;
22973;SDS011;11653;50.848;4.584;2023-06-01T07:42:15;25.90;;;16.03;;
22973;SDS011;11653;50.848;4.584;2023-06-01T07:44:41;23.13;;;14.60;;
22973;SDS011;11653;50.848;4.584;2023-06-01T07:47:07;25.33;;;15.17;;
22973;SDS011;11653;50.848;4.584;2023-06-01T07:49:32;27.33;;;14.70;;
22973;SDS011;11653;50.848;4.584;2023-06-01T07:52:01;23.83;;;15.00;;
22973;SDS011;11653;50.848;4.584;2023-06-01T07:54:28;25.67;;;16.40;;
22973;SDS011;11653;50.848;4.584;2023-06-01T07:56:54;28.47;;;15.37;;
22973;SDS011;11653;50.848;4.584;2023-06-01T07:59:21;25.83;;;14.73;;
22973;SDS011;11653;50.848;4.584;2023-06-01T08:01:48;22.30;;;14.40;;
22973;SDS011;11653;50.848;4.584;2023-06-01T08:04:15;20.33;;;13.60;;
22973;SDS011;11653;50.848;4.584;2023-06-01T08:06:41;21.60;;;13.07;;
22973;SDS011;11653;50.848;4.584;2023-06-01T08:09:08;20.63;;;11.40;;
22973;SDS011;11653;50.848;4.584;2023-06-01T08:11:35;16.13;;;12.17;;
22973;SDS011;11653;50.848;4.584;2023-06-01T08:14:01;17.30;;;12.33;;
22973;SDS011;11653;50.848;4.584;2023-06-01T08:16:28;19.23;;;11.13;;
22973;SDS011;11653;50.848;4.584;2023-06-01T08:18:55;16.90;;;11.43;;
22973;SDS011;11653;50.848;4.584;2023-06-01T08:21:25;16.50;;;10.60;;
22973;SDS011;11653;50.848;4.584;2023-06-01T08:23:52;16.40;;;10.30;;
22973;SDS011;11653;50.848;4.584;2023-06-01T08:26:21;15.37;;;10.53;;
22973;SDS011;11653;50.848;4.584;2023-06-01T08:28:48;14.67;;;10.67;;
22973;SDS011;11653;50.848;4.584;2023-06-01T08:31:21;17.67;;;10.33;;
22973;SDS011;11653;50.848;4.584;2023-06-01T08:33:48;17.53;;;10.50;;
22973;SDS011;11653;50.848;4.584;2023-06-01T08:36:14;14.87;;;10.80;;
22973;SDS011;11653;50.848;4.584;2023-06-01T08:38:40;14.67;;;9.40;;
22973;SDS011;11653;50.848;4.584;2023-06-01T08:41:11;26.73;;;11.90;;
22973;SDS011;11653;50.848;4.584;2023-06-01T08:43:57;13.70;;;9.13;;
22973;SDS011;11653;50.848;4.584;2023-06-01T08:46:25;16.15;;;10.40;;
22973;SDS011;11653;50.848;4.584;2023-06-01T08:48:54;17.55;;;10.80;;
22973;SDS011;11653;50.848;4.584;2023-06-01T08:51:22;13.77;;;9.20;;
22973;SDS011;11653;50.848;4.584;2023-06-01T08:53:49;14.60;;;10.48;;
22973;SDS011;11653;50.848;4.584;2023-06-01T08:56:16;14.48;;;9.50;;
22973;SDS011;11653;50.848;4.584;2023-06-01T08:58:43;15.60;;;10.30;;
22973;SDS011;11653;50.848;4.584;2023-06-01T09:01:10;13.23;;;9.75;;
22973;SDS011;11653;50.848;4.584;2023-06-01T09:03:44;13.68;;;9.63;;
22973;SDS011;11653;50.848;4.584;2023-06-01T09:06:10;15.60;;;9.80;;
22973;SDS011;11653;50.848;4.584;2023-06-01T09:08:35;14.63;;;9.68;;
22973;SDS011;11653;50.848;4.584;2023-06-01T09:11:01;11.75;;;8.73;;
22973;SDS011;11653;50.848;4.584;2023-06-01T09:13:32;13.82;;;10.18;;
22973;SDS011;11653;50.848;4.584;2023-06-01T09:16:02;16.17;;;9.75;;
22973;SDS011;11653;50.848;4.584;2023-06-01T09:18:28;12.50;;;9.77;;
22973;SDS011;11653;50.848;4.584;2023-06-01T09:20:54;14.70;;;9.93;;
22973;SDS011;11653;50.848;4.584;2023-06-01T09:23:34;14.75;;;9.65;;
22973;SDS011;11653;50.848;4.584;2023-06-01T09:26:10;13.85;;;9.73;;
22973;SDS011;11653;50.848;4.584;2023-06-01T09:28:52;13.70;;;9.70;;
22973;SDS011;11653;50.848;4.584;2023-06-01T09:31:34;12.27;;;8.60;;
22973;SDS011;11653;50.848;4.584;2023-06-01T09:34:02;18.35;;;9.73;;
22973;SDS011;11653;50.848;4.584;2023-06-01T09:36:28;12.52;;;9.13;;
22973;SDS011;11653;50.848;4.584;2023-06-01T09:39:04;11.75;;;10.00;;
22973;SDS011;11653;50.848;4.584;2023-06-01T09:41:44;12.85;;;9.63;;
22973;SDS011;11653;50.848;4.584;2023-06-01T09:44:21;17.13;;;9.52;;
22973;SDS011;11653;50.848;4.584;2023-06-01T09:49:27;15.45;;;9.98;;
22973;SDS011;11653;50.848;4.584;2023-06-01T09:57:01;15.88;;;10.30;;
22973;SDS011;11653;50.848;4.584;2023-06-01T09:59:28;12.85;;;9.48;;
22973;SDS011;11653;50.848;4.584;2023-06-01T10:01:55;12.65;;;9.02;;
22973;SDS011;11653;50.848;4.584;2023-06-01T10:04:23;13.82;;;10.05;;
22973;SDS011;11653;50.848;4.584;2023-06-01T10:06:51;11.07;;;9.10;;
22973;SDS011;11653;50.848;4.584;2023-06-01T10:09:19;11.85;;;9.43;;
22973;SDS011;11653;50.848;4.584;2023-06-01T10:11:47;14.15;;;10.45;;
22973;SDS011;11653;50.848;4.584;2023-06-01T10:14:17;12.02;;;9.23;;
22973;SDS011;11653;50.848;4.584;2023-06-01T10:16:42;12.73;;;9.65;;
22973;SDS011;11653;50.848;4.584;2023-06-01T10:19:09;11.38;;;9.45;;
22973;SDS011;11653;50.848;4.584;2023-06-01T10:21:36;14.25;;;8.95;;
22973;SDS011;11653;50.848;4.584;2023-06-01T10:24:03;13.10;;;9.90;;
22973;SDS011;11653;50.848;4.584;2023-06-01T10:26:30;14.23;;;9.65;;
22973;SDS011;11653;50.848;4.584;2023-06-01T10:29:01;11.40;;;9.57;;
22973;SDS011;11653;50.848;4.584;2023-06-01T10:33:57;15.75;;;9.80;;
22973;SDS011;11653;50.848;4.584;2023-06-01T10:36:23;16.70;;;9.90;;
22973;SDS011;11653;50.848;4.584;2023-06-01T10:39:14;15.32;;;10.10;;
22973;SDS011;11653;50.848;4.584;2023-06-01T10:41:49;15.07;;;10.15;;
22973;SDS011;11653;50.848;4.584;2023-06-01T10:47:03;12.05;;;9.43;;
22973;SDS011;11653;50.848;4.584;2023-06-01T10:50:30;14.05;;;10.38;;
22973;SDS011;11653;50.848;4.584;2023-06-01T10:52:31;15.40;;;10.80;;
22973;SDS011;11653;50.848;4.584;2023-06-01T10:57:36;15.25;;;9.95;;
22973;SDS011;11653;50.848;4.584;2023-06-01T11:13:18;14.70;;;10.13;;
22973;SDS011;11653;50.848;4.584;2023-06-01T11:18:45;15.77;;;10.32;;
22973;SDS011;11653;50.848;4.584;2023-06-01T11:21:16;13.05;;;10.23;;
22973;SDS011;11653;50.848;4.584;2023-06-01T11:23:46;17.67;;;11.63;;
22973;SDS011;11653;50.848;4.584;2023-06-01T11:26:19;16.92;;;11.45;;
22973;SDS011;11653;50.848;4.584;2023-06-01T11:28:46;17.90;;;10.98;;
22973;SDS011;11653;50.848;4.584;2023-06-01T11:31:14;17.35;;;11.93;;
22973;SDS011;11653;50.848;4.584;2023-06-01T11:33:41;15.48;;;11.05;;
22973;SDS011;11653;50.848;4.584;2023-06-01T11:36:17;16.98;;;11.32;;
22973;SDS011;11653;50.848;4.584;2023-06-01T11:38:45;17.88;;;11.40;;
22973;SDS011;11653;50.848;4.584;2023-06-01T11:41:11;16.80;;;12.20;;
22973;SDS011;11653;50.848;4.584;2023-06-01T11:43:37;18.80;;;12.15;;
22973;SDS011;11653;50.848;4.584;2023-06-01T11:46:03;17.17;;;11.38;;
22973;SDS011;11653;50.848;4.584;2023-06-01T11:48:33;17.60;;;11.85;;
22973;SDS011;11653;50.848;4.584;2023-06-01T11:50:59;17.25;;;12.15;;
22973;SDS011;11653;50.848;4.584;2023-06-01T11:53:29;17.63;;;11.88;;
22973;SDS011;11653;50.848;4.584;2023-06-01T11:55:57;19.02;;;11.88;;
22973;SDS011;11653;50.848;4.584;2023-06-01T11:58:24;19.20;;;12.15;;
22973;SDS011;11653;50.848;4.584;2023-06-01T12:00:51;18.65;;;11.70;;
22973;SDS011;11653;50.848;4.584;2023-06-01T12:03:18;15.40;;;10.88;;
22973;SDS011;11653;50.848;4.584;2023-06-01T12:05:43;16.40;;;10.65;;
22973;SDS011;11653;50.848;4.584;2023-06-01T12:08:19;17.48;;;11.70;;
22973;SDS011;11653;50.848;4.584;2023-06-01T12:10:47;15.70;;;10.55;;
22973;SDS011;11653;50.848;4.584;2023-06-01T12:13:14;18.70;;;11.63;;
22973;SDS011;11653;50.848;4.584;2023-06-01T12:15:40;18.95;;;12.43;;
22973;SDS011;11653;50.848;4.584;2023-06-01T12:18:06;18.45;;;11.82;;
22973;SDS011;11653;50.848;4.584;2023-06-01T12:20:37;17.63;;;12.35;;
22973;SDS011;11653;50.848;4.584;2023-06-01T12:25:53;16.92;;;12.02;;
22973;SDS011;11653;50.848;4.584;2023-06-01T12:28:25;26.05;;;12.07;;
22973;SDS011;11653;50.848;4.584;2023-06-01T12:33:39;18.98;;;12.57;;
22973;SDS011;11653;50.848;4.584;2023-06-01T12:36:05;17.67;;;12.98;;
22973;SDS011;11653;50.848;4.584;2023-06-01T12:38:35;20.00;;;11.80;;
22973;SDS011;11653;50.848;4.584;2023-06-01T12:41:06;21.75;;;12.00;;
22973;SDS011;11653;50.848;4.584;2023-06-01T12:43:33;22.80;;;12.55;;
22973;SDS011;11653;50.848;4.584;2023-06-01T12:46:00;18.02;;;11.93;;
22973;SDS011;11653;50.848;4.584;2023-06-01T12:48:33;18.60;;;12.63;;
22973;SDS011;11653;50.848;4.584;2023-06-01T12:51:03;21.48;;;12.57;;
22973;SDS011;11653;50.848;4.584;2023-06-01T12:53:30;18.23;;;11.88;;
22973;SDS011;11653;50.848;4.584;2023-06-01T12:55:56;19.48;;;12.05;;
22973;SDS011;11653;50.848;4.584;2023-06-01T12:58:21;17.88;;;11.82;;
22973;SDS011;11653;50.848;4.584;2023-06-01T13:00:47;19.05;;;10.90;;
22973;SDS011;11653;50.848;4.584;2023-06-01T13:03:14;18.98;;;10.68;;
22973;SDS011;11653;50.848;4.584;2023-06-01T13:05:43;20.80;;;10.73;;
22973;SDS011;11653;50.848;4.584;2023-06-01T13:08:15;15.13;;;9.15;;
22973;SDS011;11653;50.848;4.584;2023-06-01T13:10:44;17.42;;;11.23;;
22973;SDS011;11653;50.848;4.584;2023-06-01T13:13:12;19.40;;;11.63;;
22973;SDS011;11653;50.848;4.584;2023-06-01T13:15:42;17.20;;;10.50;;
22973;SDS011;11653;50.848;4.584;2023-06-01T13:18:08;21.67;;;10.07;;
22973;SDS011;11653;50.848;4.584;2023-06-01T13:20:34;15.33;;;9.37;;
22973;SDS011;11653;50.848;4.584;2023-06-01T13:23:00;20.87;;;10.07;;
22973;SDS011;11653;50.848;4.584;2023-06-01T13:25:26;19.13;;;9.73;;
22973;SDS011;11653;50.848;4.584;2023-06-01T13:27:52;18.40;;;9.10;;
22973;SDS011;11653;50.848;4.584;2023-06-01T13:30:18;16.73;;;9.50;;
22973;SDS011;11653;50.848;4.584;2023-06-01T13:32:44;17.73;;;9.87;;
22973;SDS011;11653;50.848;4.584;2023-06-01T13:35:10;18.30;;;8.77;;
22973;SDS011;11653;50.848;4.584;2023-06-01T13:37:39;15.25;;;9.50;;
22973;SDS011;11653;50.848;4.584;2023-06-01T13:40:06;18.17;;;8.88;;
22973;SDS011;11653;50.848;4.584;2023-06-01T13:42:32;13.50;;;8.45;;
22973;SDS011;11653;50.848;4.584;2023-06-01T13:44:58;12.87;;;8.10;;
22973;SDS011;11653;50.848;4.584;2023-06-01T13:47:24;13.07;;;7.37;;
22973;SDS011;11653;50.848;4.584;2023-06-01T13:49:50;13.57;;;8.30;;
22973;SDS011;11653;50.848;4.584;2023-06-01T13:52:16;17.47;;;8.83;;
22973;SDS011;11653;50.848;4.584;2023-06-01T13:54:42;16.33;;;8.97;;
22973;SDS011;11653;50.848;4.584;2023-06-01T13:57:08;18.57;;;9.27;;
22973;SDS011;11653;50.848;4.584;2023-06-01T13:59:34;14.77;;;8.65;;
22973;SDS011;11653;50.848;4.584;2023-06-01T14:02:01;14.48;;;8.80;;
22973;SDS011;11653;50.848;4.584;2023-06-01T14:04:28;11.82;;;8.32;;
22973;SDS011;11653;50.848;4.584;2023-06-01T14:06:54;15.13;;;8.97;;
22973;SDS011;11653;50.848;4.584;2023-06-01T14:09:20;17.93;;;9.07;;
22973;SDS011;11653;50.848;4.584;2023-06-01T14:11:47;15.17;;;8.67;;
22973;SDS011;11653;50.848;4.584;2023-06-01T14:14:12;20.00;;;9.63;;
22973;SDS011;11653;50.848;4.584;2023-06-01T14:16:38;12.70;;;8.47;;
22973;SDS011;11653;50.848;4.584;2023-06-01T14:19:04;13.70;;;8.77;;
22973;SDS011;11653;50.848;4.584;2023-06-01T14:21:30;17.87;;;10.43;;
22973;SDS011;11653;50.848;4.584;2023-06-01T14:23:57;17.13;;;9.50;;
22973;SDS011;11653;50.848;4.584;2023-06-01T14:26:23;18.17;;;9.27;;
22973;SDS011;11653;50.848;4.584;2023-06-01T14:28:49;18.03;;;11.40;;
22973;SDS011;11653;50.848;4.584;2023-06-01T14:31:15;18.63;;;11.13;;
22973;SDS011;11653;50.848;4.584;2023-06-01T14:33:40;15.63;;;9.63;;
22973;SDS011;11653;50.848;4.584;2023-06-01T14:36:06;15.57;;;8.90;;
22973;SDS011;11653;50.848;4.584;2023-06-01T14:38:32;17.37;;;9.60;;
22973;SDS011;11653;50.848;4.584;2023-06-01T14:40:57;19.83;;;9.60;;
22973;SDS011;11653;50.848;4.584;2023-06-01T14:43:23;17.50;;;8.47;;
22973;SDS011;11653;50.848;4.584;2023-06-01T14:45:49;14.97;;;8.57;;
22973;SDS011;11653;50.848;4.584;2023-06-01T14:48:14;18.43;;;9.00;;
22973;SDS011;11653;50.848;4.584;2023-06-01T14:50:40;15.30;;;8.73;;
22973;SDS011;11653;50.848;4.584;2023-06-01T14:53:06;14.40;;;8.23;;
22973;SDS011;11653;50.848;4.584;2023-06-01T14:55:32;11.57;;;7.07;;
22973;SDS011;11653;50.848;4.584;2023-06-01T14:57:58;14.77;;;7.57;;
22973;SDS011;11653;50.848;4.584;2023-06-01T15:00:24;13.40;;;6.80;;
22973;SDS011;11653;50.848;4.584;2023-06-01T15:02:49;14.30;;;7.33;;
22973;SDS011;11653;50.848;4.584;2023-06-01T15:05:15;12.97;;;7.10;;
22973;SDS011;11653;50.848;4.584;2023-06-01T15:07:41;10.60;;;5.80;;
22973;SDS011;11653;50.848;4.584;2023-06-01T15:10:07;10.93;;;6.13;;
22973;SDS011;11653;50.848;4.584;2023-06-01T15:12:34;9.83;;;6.37;;
22973;SDS011;11653;50.848;4.584;2023-06-01T15:15:01;11.60;;;6.70;;
22973;SDS011;11653;50.848;4.584;2023-06-01T15:17:27;12.30;;;6.87;;
22973;SDS011;11653;50.848;4.584;2023-06-01T15:19:52;12.10;;;6.70;;